createdAt,value
2022-09-04T00:02:25.689Z,17.40
2022-09-04T00:05:03.479Z,17.80
2022-09-04T00:07:39.471Z,17.90
2022-09-04T00:10:13.389Z,18.20
2022-09-04T00:12:49.397Z,18.40
2022-09-04T00:15:21.002Z,18.50
2022-09-04T00:17:58.050Z,18.60
2022-09-04T00:20:39.399Z,18.00
2022-09-04T00:23:15.063Z,17.80
2022-09-04T00:25:53.521Z,18.10
2022-09-04T00:28:35.547Z,18.30
2022-09-04T00:31:14.188Z,18.10
2022-09-04T00:33:53.048Z,18.30
2022-09-04T00:36:25.050Z,18.40
2022-09-04T00:38:56.838Z,18.40
2022-09-04T00:41:31.013Z,18.50
2022-09-04T00:44:31.743Z,18.60
2022-09-04T00:47:40.258Z,18.60
2022-09-04T00:50:44.126Z,18.60
2022-09-04T00:53:34.422Z,18.50
2022-09-04T00:56:37.182Z,18.50
2022-09-04T00:59:16.333Z,18.40
2022-09-04T01:01:47.668Z,18.40
2022-09-04T01:04:37.613Z,18.40
2022-09-04T01:07:24.117Z,18.40
2022-09-04T01:10:13.279Z,18.30
2022-09-04T01:12:48.243Z,18.40
2022-09-04T01:15:22.280Z,18.30
2022-09-04T01:18:04.244Z,18.30
2022-09-04T01:20:53.883Z,18.30
2022-09-04T01:23:45.623Z,18.30
2022-09-04T01:26:23.887Z,18.30
2022-09-04T01:29:17.168Z,18.30
2022-09-04T01:31:51.901Z,18.20
2022-09-04T01:34:40.838Z,18.20
2022-09-04T01:37:24.972Z,18.10
2022-09-04T01:40:04.618Z,18.10
2022-09-04T01:42:44.087Z,18.10
2022-09-04T01:45:12.387Z,18.10
2022-09-04T01:47:46.973Z,18.10
2022-09-04T01:50:21.798Z,18.20
2022-09-04T01:52:56.856Z,17.70
2022-09-04T01:55:31.770Z,17.80
2022-09-04T01:58:12.851Z,17.90
2022-09-04T02:00:50.515Z,18.00
2022-09-04T02:03:29.086Z,18.00
2022-09-04T02:06:03.567Z,18.00
2022-09-04T02:08:43.742Z,18.00
2022-09-04T02:11:18.288Z,18.00
2022-09-04T02:14:11.179Z,18.00
2022-09-04T02:16:47.427Z,17.90
2022-09-04T02:19:28.385Z,17.90
2022-09-04T02:22:04.541Z,17.90
2022-09-04T02:24:41.226Z,17.90
2022-09-04T02:27:16.682Z,17.80
2022-09-04T02:29:53.917Z,17.90
2022-09-04T02:32:26.716Z,17.80
2022-09-04T02:35:03.159Z,17.90
2022-09-04T02:37:41.307Z,17.80
2022-09-04T02:40:19.244Z,17.90
2022-09-04T02:42:57.914Z,17.90
2022-09-04T02:45:35.427Z,17.50
2022-09-04T02:48:13.799Z,17.60
2022-09-04T02:50:54.205Z,17.70
2022-09-04T02:53:31.275Z,17.70
2022-09-04T02:56:13.940Z,17.80
2022-09-04T02:58:57.742Z,17.70
2022-09-04T03:01:34.030Z,17.70
2022-09-04T03:04:11.454Z,17.70
2022-09-04T03:06:51.211Z,17.70
2022-09-04T03:09:26.368Z,17.70
2022-09-04T03:12:00.746Z,17.60
2022-09-04T03:14:36.251Z,17.60
2022-09-04T03:17:13.081Z,17.60
2022-09-04T03:19:48.585Z,17.60
2022-09-04T03:22:22.531Z,17.60
2022-09-04T03:25:10.499Z,17.60
2022-09-04T03:27:38.910Z,17.60
2022-09-04T03:30:09.894Z,17.50
2022-09-04T03:32:49.738Z,17.50
2022-09-04T03:35:25.771Z,17.50
2022-09-04T03:38:10.115Z,17.50
2022-09-04T03:40:43.202Z,17.50
2022-09-04T03:43:32.197Z,17.50
2022-09-04T03:46:10.300Z,17.40
2022-09-04T03:48:53.379Z,17.40
2022-09-04T03:51:33.812Z,17.40
2022-09-04T03:54:14.012Z,17.40
2022-09-04T03:57:19.962Z,17.30
2022-09-04T04:00:04.830Z,17.30
2022-09-04T04:03:06.357Z,17.30
2022-09-04T04:05:54.616Z,17.30
2022-09-04T04:09:00.322Z,17.20
2022-09-04T04:11:53.285Z,17.30
2022-09-04T04:14:38.776Z,17.20
2022-09-04T04:17:23.492Z,17.20
2022-09-04T04:20:14.076Z,17.20
2022-09-04T04:23:04.727Z,17.20
2022-09-04T04:25:59.975Z,17.20
2022-09-04T04:29:00.093Z,17.20
2022-09-04T04:31:44.907Z,17.20
2022-09-04T04:34:24.062Z,17.10
2022-09-04T04:37:00.816Z,17.10
2022-09-04T04:39:40.270Z,17.10
2022-09-04T04:42:22.321Z,17.10
2022-09-04T04:45:22.874Z,17.10
2022-09-04T04:48:29.941Z,17.00
2022-09-04T04:51:09.978Z,17.00
2022-09-04T04:53:47.012Z,17.00
2022-09-04T04:56:23.987Z,17.00
2022-09-04T04:59:20.646Z,17.00
2022-09-04T05:02:00.329Z,16.90
2022-09-04T05:04:40.359Z,16.80
2022-09-04T05:07:14.510Z,16.80
2022-09-04T05:09:50.016Z,16.70
2022-09-04T05:12:30.305Z,16.70
2022-09-04T05:15:04.835Z,16.60
2022-09-04T05:17:39.036Z,16.60
2022-09-04T05:20:26.180Z,16.50
2022-09-04T05:23:03.295Z,16.50
2022-09-04T05:25:40.153Z,16.50
2022-09-04T05:28:25.639Z,16.50
2022-09-04T05:31:05.780Z,16.50
2022-09-04T05:33:40.612Z,16.60
2022-09-04T05:36:17.634Z,16.60
2022-09-04T05:38:55.307Z,16.70
2022-09-04T05:41:38.260Z,16.70
2022-09-04T05:44:37.704Z,16.70
2022-09-04T05:47:21.483Z,16.80
2022-09-04T05:50:05.746Z,16.80
2022-09-04T05:52:52.371Z,16.80
2022-09-04T05:55:38.240Z,16.80
2022-09-04T05:58:24.089Z,16.80
2022-09-04T06:01:03.940Z,16.90
2022-09-04T06:03:59.105Z,16.90
2022-09-04T06:06:37.935Z,16.90
2022-09-04T06:09:29.060Z,16.90
2022-09-04T06:12:06.720Z,17.00
2022-09-04T06:14:57.779Z,17.00
2022-09-04T06:17:51.644Z,17.00
2022-09-04T06:20:40.987Z,17.00
2022-09-04T06:23:38.066Z,17.00
2022-09-04T06:26:23.292Z,17.00
2022-09-04T06:29:26.960Z,16.80
2022-09-04T06:32:16.149Z,16.70
2022-09-04T06:35:10.833Z,16.70
2022-09-04T06:37:47.260Z,16.70
2022-09-04T06:40:33.374Z,16.70
2022-09-04T06:43:16.176Z,16.80
2022-09-04T06:45:58.933Z,17.00
2022-09-04T06:48:42.055Z,17.10
2022-09-04T06:51:24.029Z,17.30
2022-09-04T06:54:07.018Z,17.40
2022-09-04T06:56:58.219Z,17.50
2022-09-04T06:59:47.698Z,17.70
2022-09-04T07:02:28.915Z,17.70
2022-09-04T07:05:11.355Z,17.70
2022-09-04T07:07:49.772Z,17.80
2022-09-04T07:10:22.870Z,17.90
2022-09-04T07:13:39.927Z,17.90
2022-09-04T07:16:20.089Z,17.90
2022-09-04T07:19:18.684Z,18.00
2022-09-04T07:21:58.968Z,18.00
2022-09-04T07:25:02.856Z,18.10
2022-09-04T07:27:55.896Z,18.20
2022-09-04T07:30:27.267Z,18.20
2022-09-04T07:32:58.466Z,18.20
2022-09-04T07:35:36.953Z,18.20
2022-09-04T07:38:16.151Z,18.20
2022-09-04T07:40:47.447Z,18.30
2022-09-04T07:43:25.384Z,18.40
2022-09-04T07:46:04.196Z,18.50
2022-09-04T07:48:38.593Z,18.60
2022-09-04T07:51:11.418Z,18.60
2022-09-04T07:54:11.664Z,18.70
2022-09-04T07:57:13.627Z,18.90
2022-09-04T08:00:17.923Z,19.10
2022-09-04T08:03:13.541Z,19.10
2022-09-04T08:05:50.169Z,19.10
2022-09-04T08:08:50.062Z,19.20
2022-09-04T08:11:50.249Z,19.20
2022-09-04T08:14:27.879Z,19.40
2022-09-04T08:17:25.251Z,19.40
2022-09-04T08:20:04.104Z,19.50
2022-09-04T08:22:46.251Z,19.60
2022-09-04T08:25:19.904Z,19.70
2022-09-04T08:28:17.487Z,19.70
2022-09-04T08:30:55.197Z,19.80
2022-09-04T08:34:02.551Z,19.80
2022-09-04T08:36:37.781Z,19.80
2022-09-04T08:39:11.982Z,19.80
2022-09-04T08:42:10.730Z,19.90
2022-09-04T08:45:24.687Z,19.90
2022-09-04T08:48:32.504Z,20.00
2022-09-04T08:51:46.215Z,20.00
2022-09-04T08:55:03.467Z,20.20
2022-09-04T08:57:54.160Z,20.40
2022-09-04T09:00:23.296Z,20.30
2022-09-04T09:03:23.051Z,20.40
2022-09-04T09:06:42.164Z,20.40
2022-09-04T09:09:43.733Z,20.60
2022-09-04T09:12:59.475Z,20.80
2022-09-04T09:15:43.202Z,21.10
2022-09-04T09:18:34.120Z,20.90
2022-09-04T09:21:08.288Z,21.10
2022-09-04T09:23:45.403Z,21.30
2022-09-04T09:26:26.607Z,21.40
2022-09-04T09:29:37.612Z,21.70
2022-09-04T09:33:09.108Z,21.90
2022-09-04T09:36:08.476Z,21.90
2022-09-04T09:39:11.020Z,22.00
2022-09-04T09:42:15.948Z,22.00
2022-09-04T09:45:22.658Z,21.70
2022-09-04T09:48:22.907Z,21.80
2022-09-04T09:51:29.307Z,21.90
2022-09-04T09:54:40.530Z,22.20
2022-09-04T09:57:51.177Z,22.00
2022-09-04T10:00:23.901Z,22.10
2022-09-04T10:03:37.961Z,22.20
2022-09-04T10:06:32.897Z,22.20
2022-09-04T10:09:38.408Z,22.40
2022-09-04T10:12:30.880Z,22.50
2022-09-04T10:15:39.163Z,22.50
2022-09-04T10:18:59.205Z,22.60
2022-09-04T10:22:05.348Z,22.90
2022-09-04T10:24:53.807Z,23.10
2022-09-04T10:28:13.292Z,23.00
2022-09-04T10:30:59.919Z,23.10
2022-09-04T10:33:38.607Z,23.20
2022-09-04T10:36:27.819Z,23.40
2022-09-04T10:39:27.215Z,23.40
2022-09-04T10:42:06.572Z,23.40
2022-09-04T10:44:59.823Z,23.40
2022-09-04T10:48:10.986Z,23.50
2022-09-04T10:51:20.921Z,24.00
2022-09-04T10:54:18.832Z,24.50
2022-09-04T10:57:03.531Z,24.40
2022-09-04T10:59:48.470Z,24.50
2022-09-04T11:02:37.815Z,24.50
2022-09-04T11:05:41.647Z,24.40
2022-09-04T11:08:50.105Z,24.30
2022-09-04T11:11:41.292Z,24.20
2022-09-04T11:14:29.993Z,24.00
2022-09-04T11:17:43.382Z,24.00
2022-09-04T11:20:45.202Z,24.30
2022-09-04T11:23:59.026Z,24.60
2022-09-04T11:27:05.959Z,24.50
2022-09-04T11:29:50.135Z,24.50
2022-09-04T11:32:38.756Z,24.40
2022-09-04T11:35:38.149Z,24.50
2022-09-04T11:38:17.568Z,24.40
2022-09-04T11:41:29.135Z,24.30
2022-09-04T11:44:26.186Z,24.20
2022-09-04T11:47:29.920Z,24.20
2022-09-04T11:50:16.741Z,24.20
2022-09-04T11:53:16.036Z,24.20
2022-09-04T11:56:21.679Z,24.10
2022-09-04T11:59:11.952Z,24.10
2022-09-04T12:01:58.975Z,24.20
2022-09-04T12:04:44.306Z,24.50
2022-09-04T12:07:43.023Z,24.60
2022-09-04T12:10:38.437Z,24.60
2022-09-04T12:13:44.499Z,24.70
2022-09-04T12:16:44.255Z,24.70
2022-09-04T12:20:07.218Z,24.70
2022-09-04T12:23:02.764Z,25.30
2022-09-04T12:26:06.108Z,25.70
2022-09-04T12:29:02.441Z,25.90
2022-09-04T12:32:07.126Z,26.20
2022-09-04T12:35:06.677Z,26.40
2022-09-04T12:38:01.846Z,26.50
2022-09-04T12:40:35.704Z,26.10
2022-09-04T12:43:20.466Z,26.00
2022-09-04T12:45:59.239Z,25.80
2022-09-04T12:48:40.614Z,25.70
2022-09-04T12:51:13.653Z,25.70
2022-09-04T12:54:00.105Z,25.80
2022-09-04T12:56:44.016Z,25.80
2022-09-04T12:59:39.719Z,25.70
2022-09-04T13:02:18.242Z,25.80
2022-09-04T13:04:57.505Z,25.80
2022-09-04T13:07:44.738Z,25.80
2022-09-04T13:10:24.648Z,25.70
2022-09-04T13:13:02.742Z,25.70
2022-09-04T13:15:40.562Z,25.80
2022-09-04T13:18:33.487Z,25.70
2022-09-04T13:21:13.990Z,25.60
2022-09-04T13:23:57.268Z,25.80
2022-09-04T13:26:42.730Z,25.70
2022-09-04T13:29:27.266Z,25.90
2022-09-04T13:32:25.005Z,26.10
2022-09-04T13:35:16.008Z,26.20
2022-09-04T13:38:01.949Z,26.00
2022-09-04T13:41:02.176Z,26.00
2022-09-04T13:43:51.438Z,25.80
2022-09-04T13:46:22.336Z,25.80
2022-09-04T13:48:54.264Z,26.00
2022-09-04T13:51:29.925Z,26.20
2022-09-04T13:54:06.636Z,26.10
2022-09-04T13:56:40.021Z,26.20
2022-09-04T13:59:16.231Z,26.30
2022-09-04T14:01:49.297Z,26.30
2022-09-04T14:04:26.828Z,26.20
2022-09-04T14:07:07.180Z,26.20
2022-09-04T14:09:43.159Z,26.00
2022-09-04T14:12:21.636Z,26.10
2022-09-04T14:15:30.820Z,26.20
2022-09-04T14:18:23.184Z,26.30
2022-09-04T14:21:00.916Z,26.20
2022-09-04T14:23:45.933Z,26.20
2022-09-04T14:26:24.482Z,26.40
2022-09-04T14:29:00.668Z,26.60
2022-09-04T14:31:35.315Z,26.80
2022-09-04T14:34:17.562Z,27.10
2022-09-04T14:36:56.611Z,26.80
2022-09-04T14:39:31.428Z,27.00
2022-09-04T14:42:28.531Z,26.40
2022-09-04T14:45:09.746Z,26.40
2022-09-04T14:47:47.365Z,26.40
2022-09-04T14:50:18.464Z,26.50
2022-09-04T14:52:49.973Z,26.50
2022-09-04T14:55:26.180Z,26.60
2022-09-04T14:58:00.748Z,26.60
2022-09-04T15:00:29.980Z,26.50
2022-09-04T15:03:10.136Z,26.50
2022-09-04T15:05:48.143Z,26.40
2022-09-04T15:08:28.978Z,26.30
2022-09-04T15:11:00.891Z,26.30
2022-09-04T15:13:51.089Z,26.30
2022-09-04T15:16:28.315Z,26.40
2022-09-04T15:19:06.856Z,26.30
2022-09-04T15:21:45.923Z,26.30
2022-09-04T15:24:26.226Z,26.30
2022-09-04T15:27:01.545Z,26.20
2022-09-04T15:29:38.392Z,26.30
2022-09-04T15:32:13.864Z,26.30
2022-09-04T15:34:44.792Z,26.40
2022-09-04T15:37:18.085Z,26.40
2022-09-04T15:39:55.131Z,26.50
2022-09-04T15:42:41.689Z,26.40
2022-09-04T15:45:22.694Z,26.40
2022-09-04T15:48:23.543Z,26.30
2022-09-04T15:51:12.323Z,26.30
2022-09-04T15:53:44.759Z,26.40
2022-09-04T15:56:34.839Z,26.40
2022-09-04T15:59:12.220Z,26.40
2022-09-04T16:01:47.601Z,26.40
2022-09-04T16:04:26.359Z,26.30
2022-09-04T16:07:04.807Z,26.30
2022-09-04T16:09:39.933Z,26.30
2022-09-04T16:12:16.948Z,26.30
2022-09-04T16:14:49.017Z,26.30
2022-09-04T16:17:22.416Z,26.30
2022-09-04T16:19:57.754Z,26.30
2022-09-04T16:22:36.415Z,26.30
2022-09-04T16:25:11.151Z,26.30
2022-09-04T16:27:44.583Z,26.30
2022-09-04T16:30:33.042Z,26.30
2022-09-04T16:33:02.513Z,26.20
2022-09-04T16:35:35.906Z,26.20
2022-09-04T16:38:11.789Z,26.20
2022-09-04T16:40:46.629Z,26.20
2022-09-04T16:43:24.376Z,26.20
2022-09-04T16:46:06.545Z,26.20
2022-09-04T16:48:41.817Z,26.10
2022-09-04T16:51:37.322Z,26.10
2022-09-04T16:54:12.450Z,26.10
2022-09-04T16:56:43.713Z,26.10
2022-09-04T16:59:24.802Z,26.10
2022-09-04T17:02:01.100Z,26.00
2022-09-04T17:04:40.083Z,26.00
2022-09-04T17:07:20.263Z,25.90
2022-09-04T17:10:01.755Z,25.90
2022-09-04T17:12:43.093Z,25.80
2022-09-04T17:15:24.879Z,25.80
2022-09-04T17:17:56.179Z,25.80
2022-09-04T17:20:33.632Z,25.80
2022-09-04T17:28:56.217Z,25.80
2022-09-04T17:29:18.570Z,25.80
2022-09-04T17:29:34.627Z,26.00
2022-09-04T17:32:06.994Z,26.20
2022-09-04T17:40:35.593Z,26.40
2022-09-04T17:40:41.635Z,26.40
2022-09-04T17:41:36.137Z,26.50
2022-09-04T17:44:40.272Z,26.40
2022-09-04T17:47:19.784Z,26.40
2022-09-04T17:49:52.024Z,26.30
2022-09-04T17:52:28.289Z,26.30
2022-09-04T17:55:01.600Z,26.30
2022-09-04T17:57:46.430Z,26.20
2022-09-04T18:00:21.124Z,26.20
2022-09-04T18:02:59.443Z,26.10
2022-09-04T18:05:33.859Z,26.10
2022-09-04T18:08:12.410Z,26.00
2022-09-04T18:10:53.215Z,26.00
2022-09-04T18:13:37.748Z,26.00
2022-09-04T18:16:18.605Z,25.80
2022-09-04T18:18:52.102Z,25.80
2022-09-04T18:21:26.225Z,25.70
2022-09-04T18:24:01.795Z,25.70
2022-09-04T18:26:40.530Z,25.60
2022-09-04T18:32:43.210Z,25.60
2022-09-04T18:37:21.950Z,25.40
2022-09-04T18:37:26.041Z,25.40
2022-09-04T18:38:28.315Z,25.30
2022-09-04T18:45:53.006Z,25.20
2022-09-04T18:50:29.500Z,25.00
2022-09-04T18:50:49.101Z,25.10
2022-09-04T18:51:04.454Z,25.00
2022-09-04T18:52:30.017Z,24.90
2022-09-04T18:55:03.440Z,24.80
2022-09-04T18:57:36.301Z,24.70
2022-09-04T19:00:11.525Z,24.70
2022-09-04T19:02:52.981Z,24.60
2022-09-04T19:05:24.967Z,24.50
2022-09-04T19:07:59.144Z,24.50
2022-09-04T19:10:30.176Z,24.40
2022-09-04T19:13:04.855Z,24.30
2022-09-04T19:15:50.783Z,24.30
2022-09-04T19:18:27.031Z,24.20
2022-09-04T19:21:14.715Z,24.10
2022-09-04T19:23:50.167Z,24.10
2022-09-04T19:26:26.202Z,24.00
2022-09-04T19:29:00.185Z,24.00
2022-09-04T19:31:34.508Z,23.90
2022-09-04T19:34:13.816Z,23.80
2022-09-04T19:36:48.471Z,23.70
2022-09-04T19:42:57.015Z,23.70
2022-09-04T19:46:01.429Z,23.60
2022-09-04T19:46:18.263Z,23.50
2022-09-04T19:48:25.130Z,23.40
2022-09-04T19:53:22.932Z,23.40
2022-09-04T19:53:55.433Z,23.30
2022-09-04T19:56:31.380Z,23.20
2022-09-04T19:59:06.827Z,23.20
2022-09-04T20:01:45.826Z,23.10
2022-09-04T20:04:26.190Z,23.00
2022-09-04T20:06:58.423Z,22.90
2022-09-04T20:09:33.515Z,22.90
2022-09-04T20:12:14.313Z,22.80
2022-09-04T20:14:46.976Z,22.80
2022-09-04T20:17:28.645Z,22.70
2022-09-04T20:20:00.679Z,22.70
2022-09-04T20:22:34.991Z,22.60
2022-09-04T20:25:30.499Z,22.60
2022-09-04T20:28:12.799Z,22.40
2022-09-04T20:30:43.996Z,22.20
2022-09-04T20:33:18.791Z,22.20
2022-09-04T20:35:52.257Z,21.90
2022-09-04T20:38:30.311Z,22.10
2022-09-04T20:41:03.171Z,22.10
2022-09-04T20:43:48.766Z,22.00
2022-09-04T20:49:20.119Z,22.20
2022-09-04T20:52:51.600Z,22.20
2022-09-04T20:53:06.149Z,22.00
2022-09-04T20:55:32.255Z,21.90
2022-09-04T21:02:23.142Z,21.60
2022-09-04T21:03:19.144Z,21.10
2022-09-04T21:04:23.858Z,21.50
2022-09-04T21:07:18.441Z,21.30
2022-09-04T21:09:58.299Z,21.30
2022-09-04T21:12:37.379Z,21.50
2022-09-04T21:15:14.150Z,21.20
2022-09-04T21:18:06.616Z,21.30
2022-09-04T21:21:00.217Z,21.50
2022-09-04T21:24:03.224Z,21.60
2022-09-04T21:26:48.771Z,21.60
2022-09-04T21:29:42.424Z,21.60
2022-09-04T21:32:30.253Z,21.70
2022-09-04T21:35:09.068Z,21.60
2022-09-04T21:37:47.476Z,21.60
2022-09-04T21:40:51.500Z,21.40
2022-09-04T21:43:41.193Z,21.30
2022-09-04T21:46:38.148Z,20.90
2022-09-04T21:49:26.603Z,20.80
2022-09-04T21:52:24.726Z,20.90
2022-09-04T21:58:11.609Z,21.00
2022-09-04T22:02:36.870Z,20.90
2022-09-04T22:02:42.950Z,20.80
2022-09-04T22:04:20.584Z,20.10
2022-09-04T22:08:24.060Z,20.30
2022-09-04T22:13:34.330Z,20.20
2022-09-04T22:13:40.556Z,19.90
2022-09-04T22:16:01.019Z,20.10
2022-09-04T22:18:42.682Z,19.90
2022-09-04T22:21:28.217Z,19.90
2022-09-04T22:24:17.828Z,20.20
2022-09-04T22:27:11.889Z,20.40
2022-09-04T22:29:50.879Z,20.50
2022-09-04T22:32:54.728Z,20.60
2022-09-04T22:36:02.692Z,20.10
2022-09-04T22:38:36.304Z,20.40
2022-09-04T22:41:19.715Z,20.50
2022-09-04T22:43:57.597Z,20.40
2022-09-04T22:46:47.423Z,19.90
2022-09-04T22:49:47.480Z,19.60
2022-09-04T22:52:50.554Z,19.90
2022-09-04T22:56:23.737Z,20.20
2022-09-04T22:59:25.782Z,20.30
2022-09-04T23:03:07.057Z,19.90
2022-09-04T23:05:43.419Z,20.20
2022-09-04T23:13:47.650Z,20.10
2022-09-04T23:14:02.712Z,20.30
2022-09-04T23:14:47.567Z,20.30
2022-09-04T23:17:51.119Z,20.40
2022-09-04T23:26:37.472Z,20.10
2022-09-04T23:26:51.091Z,20.00
2022-09-04T23:27:29.621Z,20.10
2022-09-04T23:30:25.567Z,20.20
2022-09-04T23:33:39.911Z,20.30
2022-09-04T23:36:37.595Z,20.10
2022-09-04T23:39:33.495Z,20.20
2022-09-04T23:42:18.519Z,20.20
2022-09-04T23:45:08.330Z,20.20
2022-09-04T23:48:11.183Z,20.20
2022-09-04T23:50:54.971Z,20.20
2022-09-04T23:53:36.324Z,20.20
2022-09-04T23:56:14.856Z,20.20
2022-09-04T23:59:26.052Z,20.20
